sensor_id;sensor_type;location;lat;lon;timestamp;P1;durP1;ratioP1;P2;durP2;ratioP2
72639;SDS011;60683;51.730;8.762;2023-09-30T00:01:57;10.65;;;2.17;;
72639;SDS011;60683;51.730;8.762;2023-09-30T00:04:24;7.85;;;2.67;;
72639;SDS011;60683;51.730;8.762;2023-09-30T00:06:53;9.82;;;2.30;;
72639;SDS011;60683;51.730;8.762;2023-09-30T00:09:19;8.40;;;2.60;;
72639;SDS011;60683;51.730;8.762;2023-09-30T00:11:48;7.97;;;2.33;;
72639;SDS011;60683;51.730;8.762;2023-09-30T00:14:15;6.88;;;2.45;;
72639;SDS011;60683;51.730;8.762;2023-09-30T00:16:43;7.63;;;2.03;;
72639;SDS011;60683;51.730;8.762;2023-09-30T00:19:10;7.22;;;2.40;;
72639;SDS011;60683;51.730;8.762;2023-09-30T00:21:37;13.52;;;2.17;;
72639;SDS011;60683;51.730;8.762;2023-09-30T00:24:04;10.75;;;2.78;;
72639;SDS011;60683;51.730;8.762;2023-09-30T00:26:32;7.35;;;3.22;;
72639;SDS011;60683;51.730;8.762;2023-09-30T00:29:00;7.85;;;2.17;;
72639;SDS011;60683;51.730;8.762;2023-09-30T00:31:29;10.70;;;3.08;;
72639;SDS011;60683;51.730;8.762;2023-09-30T00:33:56;10.60;;;2.88;;
72639;SDS011;60683;51.730;8.762;2023-09-30T00:36:23;6.88;;;2.42;;
72639;SDS011;60683;51.730;8.762;2023-09-30T00:38:50;8.43;;;3.17;;
72639;SDS011;60683;51.730;8.762;2023-09-30T00:41:17;9.70;;;2.70;;
72639;SDS011;60683;51.730;8.762;2023-09-30T00:43:45;10.82;;;3.60;;
72639;SDS011;60683;51.730;8.762;2023-09-30T00:46:15;9.18;;;3.17;;
72639;SDS011;60683;51.730;8.762;2023-09-30T00:48:52;7.35;;;2.53;;
72639;SDS011;60683;51.730;8.762;2023-09-30T00:51:19;8.95;;;3.22;;
72639;SDS011;60683;51.730;8.762;2023-09-30T00:53:47;10.82;;;3.80;;
72639;SDS011;60683;51.730;8.762;2023-09-30T00:56:16;7.85;;;3.08;;
72639;SDS011;60683;51.730;8.762;2023-09-30T00:58:44;12.57;;;3.80;;
72639;SDS011;60683;51.730;8.762;2023-09-30T01:01:12;12.32;;;3.60;;
72639;SDS011;60683;51.730;8.762;2023-09-30T01:03:42;9.88;;;3.53;;
72639;SDS011;60683;51.730;8.762;2023-09-30T01:06:09;7.72;;;3.08;;
72639;SDS011;60683;51.730;8.762;2023-09-30T01:08:35;12.63;;;2.90;;
72639;SDS011;60683;51.730;8.762;2023-09-30T01:11:03;9.18;;;3.20;;
72639;SDS011;60683;51.730;8.762;2023-09-30T01:13:33;10.52;;;3.22;;
72639;SDS011;60683;51.730;8.762;2023-09-30T01:16:02;7.95;;;3.03;;
72639;SDS011;60683;51.730;8.762;2023-09-30T01:18:31;9.82;;;2.58;;
72639;SDS011;60683;51.730;8.762;2023-09-30T01:20:59;9.43;;;3.42;;
72639;SDS011;60683;51.730;8.762;2023-09-30T01:23:32;11.73;;;3.45;;
72639;SDS011;60683;51.730;8.762;2023-09-30T01:26:00;13.55;;;3.58;;
72639;SDS011;60683;51.730;8.762;2023-09-30T01:28:28;6.45;;;3.30;;
72639;SDS011;60683;51.730;8.762;2023-09-30T01:30:56;10.70;;;2.90;;
72639;SDS011;60683;51.730;8.762;2023-09-30T01:33:23;9.30;;;3.17;;
72639;SDS011;60683;51.730;8.762;2023-09-30T01:35:50;10.50;;;2.95;;
72639;SDS011;60683;51.730;8.762;2023-09-30T01:38:17;10.25;;;3.45;;
72639;SDS011;60683;51.730;8.762;2023-09-30T01:40:47;9.93;;;3.25;;
72639;SDS011;60683;51.730;8.762;2023-09-30T01:43:14;10.07;;;2.97;;
72639;SDS011;60683;51.730;8.762;2023-09-30T01:45:42;10.13;;;2.83;;
72639;SDS011;60683;51.730;8.762;2023-09-30T01:48:09;9.55;;;3.22;;
72639;SDS011;60683;51.730;8.762;2023-09-30T01:50:37;8.85;;;2.75;;
72639;SDS011;60683;51.730;8.762;2023-09-30T01:53:04;8.05;;;2.83;;
72639;SDS011;60683;51.730;8.762;2023-09-30T01:55:32;12.60;;;3.75;;
72639;SDS011;60683;51.730;8.762;2023-09-30T01:58:00;6.57;;;2.33;;
72639;SDS011;60683;51.730;8.762;2023-09-30T02:00:28;11.60;;;2.85;;
72639;SDS011;60683;51.730;8.762;2023-09-30T02:02:55;9.60;;;3.00;;
72639;SDS011;60683;51.730;8.762;2023-09-30T02:05:23;9.85;;;2.50;;
72639;SDS011;60683;51.730;8.762;2023-09-30T02:07:50;9.57;;;2.38;;
72639;SDS011;60683;51.730;8.762;2023-09-30T02:10:18;10.02;;;2.75;;
72639;SDS011;60683;51.730;8.762;2023-09-30T02:12:45;6.95;;;2.38;;
72639;SDS011;60683;51.730;8.762;2023-09-30T02:15:14;8.07;;;2.78;;
72639;SDS011;60683;51.730;8.762;2023-09-30T02:17:41;10.57;;;2.75;;
72639;SDS011;60683;51.730;8.762;2023-09-30T02:20:11;10.45;;;2.97;;
72639;SDS011;60683;51.730;8.762;2023-09-30T02:22:41;10.48;;;2.83;;
72639;SDS011;60683;51.730;8.762;2023-09-30T02:25:10;10.98;;;2.72;;
72639;SDS011;60683;51.730;8.762;2023-09-30T02:27:38;8.68;;;3.13;;
72639;SDS011;60683;51.730;8.762;2023-09-30T02:30:07;9.43;;;2.53;;
72639;SDS011;60683;51.730;8.762;2023-09-30T02:32:38;10.90;;;2.92;;
72639;SDS011;60683;51.730;8.762;2023-09-30T02:35:06;8.50;;;2.55;;
72639;SDS011;60683;51.730;8.762;2023-09-30T02:37:36;7.13;;;2.95;;
72639;SDS011;60683;51.730;8.762;2023-09-30T02:40:04;7.28;;;2.80;;
72639;SDS011;60683;51.730;8.762;2023-09-30T02:42:35;11.68;;;2.35;;
72639;SDS011;60683;51.730;8.762;2023-09-30T02:45:03;9.45;;;2.92;;
72639;SDS011;60683;51.730;8.762;2023-09-30T02:47:30;10.27;;;3.15;;
72639;SDS011;60683;51.730;8.762;2023-09-30T02:49:59;11.18;;;3.20;;
72639;SDS011;60683;51.730;8.762;2023-09-30T02:52:26;8.18;;;2.53;;
72639;SDS011;60683;51.730;8.762;2023-09-30T02:54:54;7.35;;;2.90;;
72639;SDS011;60683;51.730;8.762;2023-09-30T02:57:22;10.20;;;2.50;;
72639;SDS011;60683;51.730;8.762;2023-09-30T02:59:50;7.68;;;3.20;;
72639;SDS011;60683;51.730;8.762;2023-09-30T03:02:18;8.18;;;2.70;;
72639;SDS011;60683;51.730;8.762;2023-09-30T03:04:46;5.72;;;2.55;;
72639;SDS011;60683;51.730;8.762;2023-09-30T03:07:17;10.88;;;2.30;;
72639;SDS011;60683;51.730;8.762;2023-09-30T03:09:45;7.15;;;2.50;;
72639;SDS011;60683;51.730;8.762;2023-09-30T03:12:12;10.50;;;2.42;;
72639;SDS011;60683;51.730;8.762;2023-09-30T03:14:39;8.90;;;2.60;;
72639;SDS011;60683;51.730;8.762;2023-09-30T03:17:06;9.27;;;2.60;;
72639;SDS011;60683;51.730;8.762;2023-09-30T03:19:37;9.77;;;2.38;;
72639;SDS011;60683;51.730;8.762;2023-09-30T03:22:05;6.10;;;2.75;;
72639;SDS011;60683;51.730;8.762;2023-09-30T03:24:38;8.88;;;3.10;;
72639;SDS011;60683;51.730;8.762;2023-09-30T03:27:06;14.05;;;3.45;;
72639;SDS011;60683;51.730;8.762;2023-09-30T03:29:35;7.57;;;3.00;;
72639;SDS011;60683;51.730;8.762;2023-09-30T03:32:03;9.55;;;3.28;;
72639;SDS011;60683;51.730;8.762;2023-09-30T03:34:30;9.00;;;3.15;;
72639;SDS011;60683;51.730;8.762;2023-09-30T03:36:57;8.27;;;2.47;;
72639;SDS011;60683;51.730;8.762;2023-09-30T03:39:25;11.55;;;3.05;;
72639;SDS011;60683;51.730;8.762;2023-09-30T03:41:55;8.10;;;2.50;;
72639;SDS011;60683;51.730;8.762;2023-09-30T03:44:23;6.70;;;3.10;;
72639;SDS011;60683;51.730;8.762;2023-09-30T03:46:50;7.75;;;2.80;;
72639;SDS011;60683;51.730;8.762;2023-09-30T03:49:18;6.68;;;2.95;;
72639;SDS011;60683;51.730;8.762;2023-09-30T03:51:46;10.65;;;2.88;;
72639;SDS011;60683;51.730;8.762;2023-09-30T03:54:16;8.15;;;2.90;;
72639;SDS011;60683;51.730;8.762;2023-09-30T03:56:44;9.80;;;3.22;;
72639;SDS011;60683;51.730;8.762;2023-09-30T03:59:13;11.38;;;3.20;;
72639;SDS011;60683;51.730;8.762;2023-09-30T04:01:41;8.90;;;3.10;;
72639;SDS011;60683;51.730;8.762;2023-09-30T04:04:08;8.18;;;2.65;;
72639;SDS011;60683;51.730;8.762;2023-09-30T04:06:35;8.90;;;3.40;;
72639;SDS011;60683;51.730;8.762;2023-09-30T04:09:04;7.82;;;3.28;;
72639;SDS011;60683;51.730;8.762;2023-09-30T04:11:35;7.30;;;2.60;;
72639;SDS011;60683;51.730;8.762;2023-09-30T04:14:03;10.52;;;2.75;;
72639;SDS011;60683;51.730;8.762;2023-09-30T04:16:32;10.77;;;3.03;;
72639;SDS011;60683;51.730;8.762;2023-09-30T04:18:59;10.38;;;3.15;;
72639;SDS011;60683;51.730;8.762;2023-09-30T04:21:26;9.77;;;3.38;;
72639;SDS011;60683;51.730;8.762;2023-09-30T04:23:55;7.97;;;3.17;;
72639;SDS011;60683;51.730;8.762;2023-09-30T04:26:23;10.38;;;3.13;;
72639;SDS011;60683;51.730;8.762;2023-09-30T04:28:50;9.18;;;2.85;;
72639;SDS011;60683;51.730;8.762;2023-09-30T04:31:18;10.15;;;2.80;;
72639;SDS011;60683;51.730;8.762;2023-09-30T04:33:48;7.43;;;2.60;;
72639;SDS011;60683;51.730;8.762;2023-09-30T04:36:18;10.10;;;3.38;;
72639;SDS011;60683;51.730;8.762;2023-09-30T04:38:45;9.77;;;3.17;;
72639;SDS011;60683;51.730;8.762;2023-09-30T04:41:12;8.13;;;2.67;;
72639;SDS011;60683;51.730;8.762;2023-09-30T04:43:41;10.40;;;3.25;;
72639;SDS011;60683;51.730;8.762;2023-09-30T04:46:08;8.38;;;3.13;;
72639;SDS011;60683;51.730;8.762;2023-09-30T04:48:38;8.25;;;2.63;;
72639;SDS011;60683;51.730;8.762;2023-09-30T04:51:07;10.02;;;3.60;;
72639;SDS011;60683;51.730;8.762;2023-09-30T04:53:37;8.82;;;3.03;;
72639;SDS011;60683;51.730;8.762;2023-09-30T04:56:04;10.95;;;2.60;;
72639;SDS011;60683;51.730;8.762;2023-09-30T04:58:31;10.63;;;3.08;;
72639;SDS011;60683;51.730;8.762;2023-09-30T05:00:58;7.75;;;3.10;;
72639;SDS011;60683;51.730;8.762;2023-09-30T05:03:25;11.80;;;3.00;;
72639;SDS011;60683;51.730;8.762;2023-09-30T05:05:52;9.88;;;2.58;;
72639;SDS011;60683;51.730;8.762;2023-09-30T05:08:23;9.52;;;2.88;;
72639;SDS011;60683;51.730;8.762;2023-09-30T05:10:50;6.60;;;2.60;;
72639;SDS011;60683;51.730;8.762;2023-09-30T05:13:21;10.10;;;2.90;;
72639;SDS011;60683;51.730;8.762;2023-09-30T05:15:48;10.43;;;3.20;;
72639;SDS011;60683;51.730;8.762;2023-09-30T05:18:16;9.77;;;2.47;;
72639;SDS011;60683;51.730;8.762;2023-09-30T05:20:42;7.60;;;2.58;;
72639;SDS011;60683;51.730;8.762;2023-09-30T05:23:10;8.65;;;2.58;;
72639;SDS011;60683;51.730;8.762;2023-09-30T05:25:39;9.10;;;2.75;;
72639;SDS011;60683;51.730;8.762;2023-09-30T05:28:08;6.03;;;3.00;;
72639;SDS011;60683;51.730;8.762;2023-09-30T05:30:35;6.40;;;2.28;;
72639;SDS011;60683;51.730;8.762;2023-09-30T05:33:02;12.52;;;2.97;;
72639;SDS011;60683;51.730;8.762;2023-09-30T05:35:30;11.25;;;3.80;;
72639;SDS011;60683;51.730;8.762;2023-09-30T05:37:58;12.05;;;3.35;;
72639;SDS011;60683;51.730;8.762;2023-09-30T05:40:24;8.77;;;2.75;;
72639;SDS011;60683;51.730;8.762;2023-09-30T05:42:54;9.02;;;2.88;;
72639;SDS011;60683;51.730;8.762;2023-09-30T05:45:23;11.65;;;3.35;;
72639;SDS011;60683;51.730;8.762;2023-09-30T05:47:52;7.65;;;2.95;;
72639;SDS011;60683;51.730;8.762;2023-09-30T05:50:19;8.25;;;2.50;;
72639;SDS011;60683;51.730;8.762;2023-09-30T05:52:50;10.18;;;3.75;;
72639;SDS011;60683;51.730;8.762;2023-09-30T05:55:17;9.95;;;3.00;;
72639;SDS011;60683;51.730;8.762;2023-09-30T05:57:46;7.82;;;2.88;;
72639;SDS011;60683;51.730;8.762;2023-09-30T06:00:16;7.40;;;2.67;;
72639;SDS011;60683;51.730;8.762;2023-09-30T06:02:48;9.23;;;2.90;;
72639;SDS011;60683;51.730;8.762;2023-09-30T06:05:17;6.28;;;2.50;;
72639;SDS011;60683;51.730;8.762;2023-09-30T06:07:45;11.48;;;2.28;;
72639;SDS011;60683;51.730;8.762;2023-09-30T06:10:12;7.93;;;2.70;;
72639;SDS011;60683;51.730;8.762;2023-09-30T06:12:44;9.55;;;2.65;;
72639;SDS011;60683;51.730;8.762;2023-09-30T06:15:12;9.85;;;2.17;;
72639;SDS011;60683;51.730;8.762;2023-09-30T06:17:41;10.35;;;2.85;;
72639;SDS011;60683;51.730;8.762;2023-09-30T06:20:09;8.38;;;2.30;;
72639;SDS011;60683;51.730;8.762;2023-09-30T06:22:42;8.20;;;2.33;;
72639;SDS011;60683;51.730;8.762;2023-09-30T06:25:10;7.15;;;2.25;;
72639;SDS011;60683;51.730;8.762;2023-09-30T06:27:38;6.80;;;2.50;;
72639;SDS011;60683;51.730;8.762;2023-09-30T06:30:05;13.00;;;2.92;;
72639;SDS011;60683;51.730;8.762;2023-09-30T06:32:34;7.78;;;2.35;;
72639;SDS011;60683;51.730;8.762;2023-09-30T06:35:03;9.68;;;2.75;;
72639;SDS011;60683;51.730;8.762;2023-09-30T06:37:31;9.98;;;2.63;;
72639;SDS011;60683;51.730;8.762;2023-09-30T06:39:58;6.55;;;2.45;;
72639;SDS011;60683;51.730;8.762;2023-09-30T06:42:29;10.45;;;2.78;;
72639;SDS011;60683;51.730;8.762;2023-09-30T06:44:56;8.90;;;2.97;;
72639;SDS011;60683;51.730;8.762;2023-09-30T06:47:23;11.23;;;3.17;;
72639;SDS011;60683;51.730;8.762;2023-09-30T06:49:50;7.80;;;2.75;;
72639;SDS011;60683;51.730;8.762;2023-09-30T06:52:18;11.82;;;3.30;;
72639;SDS011;60683;51.730;8.762;2023-09-30T06:54:45;8.70;;;2.63;;
72639;SDS011;60683;51.730;8.762;2023-09-30T06:57:12;8.50;;;3.00;;
72639;SDS011;60683;51.730;8.762;2023-09-30T06:59:39;11.07;;;3.15;;
72639;SDS011;60683;51.730;8.762;2023-09-30T07:02:06;10.45;;;2.78;;
72639;SDS011;60683;51.730;8.762;2023-09-30T07:04:33;8.15;;;2.58;;
72639;SDS011;60683;51.730;8.762;2023-09-30T07:07:00;8.30;;;2.50;;
72639;SDS011;60683;51.730;8.762;2023-09-30T07:09:28;8.73;;;2.92;;
72639;SDS011;60683;51.730;8.762;2023-09-30T07:11:56;10.82;;;3.10;;
72639;SDS011;60683;51.730;8.762;2023-09-30T07:14:23;9.65;;;2.92;;
72639;SDS011;60683;51.730;8.762;2023-09-30T07:16:50;10.88;;;3.13;;
72639;SDS011;60683;51.730;8.762;2023-09-30T07:19:17;7.72;;;2.25;;
72639;SDS011;60683;51.730;8.762;2023-09-30T07:21:45;11.32;;;3.03;;
72639;SDS011;60683;51.730;8.762;2023-09-30T07:24:12;7.70;;;2.78;;
72639;SDS011;60683;51.730;8.762;2023-09-30T07:26:40;8.88;;;2.60;;
72639;SDS011;60683;51.730;8.762;2023-09-30T07:29:08;7.72;;;2.50;;
72639;SDS011;60683;51.730;8.762;2023-09-30T07:31:35;7.60;;;3.00;;
72639;SDS011;60683;51.730;8.762;2023-09-30T07:34:02;8.10;;;2.30;;
72639;SDS011;60683;51.730;8.762;2023-09-30T07:36:30;8.30;;;3.05;;
72639;SDS011;60683;51.730;8.762;2023-09-30T07:38:57;12.48;;;2.67;;
72639;SDS011;60683;51.730;8.762;2023-09-30T07:41:26;7.22;;;2.88;;
72639;SDS011;60683;51.730;8.762;2023-09-30T07:43:54;12.30;;;2.58;;
72639;SDS011;60683;51.730;8.762;2023-09-30T07:46:21;11.13;;;3.00;;
72639;SDS011;60683;51.730;8.762;2023-09-30T07:48:48;9.73;;;1.92;;
72639;SDS011;60683;51.730;8.762;2023-09-30T07:51:15;6.93;;;2.60;;
72639;SDS011;60683;51.730;8.762;2023-09-30T07:53:42;10.05;;;2.13;;
72639;SDS011;60683;51.730;8.762;2023-09-30T07:56:09;12.82;;;2.45;;
72639;SDS011;60683;51.730;8.762;2023-09-30T07:58:36;10.95;;;2.88;;
72639;SDS011;60683;51.730;8.762;2023-09-30T08:01:07;9.45;;;2.35;;
72639;SDS011;60683;51.730;8.762;2023-09-30T08:03:34;10.20;;;2.92;;
72639;SDS011;60683;51.730;8.762;2023-09-30T08:06:02;9.27;;;2.75;;
72639;SDS011;60683;51.730;8.762;2023-09-30T08:08:30;9.02;;;2.40;;
72639;SDS011;60683;51.730;8.762;2023-09-30T08:10:57;8.52;;;2.65;;
72639;SDS011;60683;51.730;8.762;2023-09-30T08:13:24;10.15;;;2.75;;
72639;SDS011;60683;51.730;8.762;2023-09-30T08:15:52;10.70;;;2.47;;
72639;SDS011;60683;51.730;8.762;2023-09-30T08:18:21;15.63;;;2.83;;
72639;SDS011;60683;51.730;8.762;2023-09-30T08:20:48;7.18;;;3.28;;
72639;SDS011;60683;51.730;8.762;2023-09-30T08:23:15;8.27;;;2.22;;
72639;SDS011;60683;51.730;8.762;2023-09-30T08:25:42;7.95;;;2.60;;
72639;SDS011;60683;51.730;8.762;2023-09-30T08:28:09;6.90;;;2.15;;
72639;SDS011;60683;51.730;8.762;2023-09-30T08:30:36;10.77;;;2.58;;
72639;SDS011;60683;51.730;8.762;2023-09-30T08:33:04;10.65;;;2.80;;
72639;SDS011;60683;51.730;8.762;2023-09-30T08:35:36;9.13;;;2.10;;
72639;SDS011;60683;51.730;8.762;2023-09-30T08:38:03;8.65;;;2.58;;
72639;SDS011;60683;51.730;8.762;2023-09-30T08:40:31;6.78;;;2.22;;
72639;SDS011;60683;51.730;8.762;2023-09-30T08:42:58;11.07;;;2.50;;
72639;SDS011;60683;51.730;8.762;2023-09-30T08:45:27;9.23;;;3.20;;
72639;SDS011;60683;51.730;8.762;2023-09-30T08:47:55;9.75;;;2.80;;
72639;SDS011;60683;51.730;8.762;2023-09-30T08:50:22;9.07;;;2.65;;
72639;SDS011;60683;51.730;8.762;2023-09-30T08:52:50;11.60;;;2.78;;
72639;SDS011;60683;51.730;8.762;2023-09-30T08:55:18;6.88;;;2.00;;
72639;SDS011;60683;51.730;8.762;2023-09-30T08:57:45;11.88;;;3.35;;
72639;SDS011;60683;51.730;8.762;2023-09-30T09:00:13;7.97;;;2.85;;
72639;SDS011;60683;51.730;8.762;2023-09-30T09:02:41;11.93;;;2.75;;
72639;SDS011;60683;51.730;8.762;2023-09-30T09:05:09;11.23;;;3.22;;
72639;SDS011;60683;51.730;8.762;2023-09-30T09:07:36;14.88;;;3.10;;
72639;SDS011;60683;51.730;8.762;2023-09-30T09:10:06;13.75;;;3.50;;
72639;SDS011;60683;51.730;8.762;2023-09-30T09:12:36;6.30;;;2.35;;
72639;SDS011;60683;51.730;8.762;2023-09-30T09:15:04;7.25;;;2.92;;
72639;SDS011;60683;51.730;8.762;2023-09-30T09:17:39;7.45;;;2.03;;
72639;SDS011;60683;51.730;8.762;2023-09-30T09:20:08;9.25;;;3.35;;
72639;SDS011;60683;51.730;8.762;2023-09-30T09:22:39;10.20;;;3.28;;
72639;SDS011;60683;51.730;8.762;2023-09-30T09:25:09;11.13;;;2.70;;
72639;SDS011;60683;51.730;8.762;2023-09-30T09:27:36;9.40;;;3.03;;
72639;SDS011;60683;51.730;8.762;2023-09-30T09:32:53;6.50;;;2.75;;
72639;SDS011;60683;51.730;8.762;2023-09-30T09:35:22;8.90;;;2.72;;
72639;SDS011;60683;51.730;8.762;2023-09-30T09:37:54;7.20;;;2.60;;
72639;SDS011;60683;51.730;8.762;2023-09-30T09:40:24;9.10;;;2.63;;
72639;SDS011;60683;51.730;8.762;2023-09-30T09:42:52;6.22;;;2.88;;
72639;SDS011;60683;51.730;8.762;2023-09-30T09:45:21;9.18;;;2.80;;
72639;SDS011;60683;51.730;8.762;2023-09-30T09:47:49;8.68;;;2.53;;
72639;SDS011;60683;51.730;8.762;2023-09-30T09:50:18;6.13;;;2.25;;
72639;SDS011;60683;51.730;8.762;2023-09-30T09:52:46;5.32;;;1.88;;
72639;SDS011;60683;51.730;8.762;2023-09-30T09:55:15;6.68;;;2.60;;
72639;SDS011;60683;51.730;8.762;2023-09-30T09:57:44;7.30;;;2.40;;
72639;SDS011;60683;51.730;8.762;2023-09-30T10:00:13;5.55;;;2.05;;
72639;SDS011;60683;51.730;8.762;2023-09-30T10:02:41;5.93;;;2.05;;
72639;SDS011;60683;51.730;8.762;2023-09-30T10:05:09;9.43;;;2.88;;
72639;SDS011;60683;51.730;8.762;2023-09-30T10:07:38;8.85;;;2.55;;
72639;SDS011;60683;51.730;8.762;2023-09-30T10:10:11;7.93;;;2.47;;
72639;SDS011;60683;51.730;8.762;2023-09-30T10:12:40;6.10;;;2.75;;
72639;SDS011;60683;51.730;8.762;2023-09-30T10:18:07;6.47;;;2.42;;
72639;SDS011;60683;51.730;8.762;2023-09-30T10:20:37;8.00;;;2.92;;
72639;SDS011;60683;51.730;8.762;2023-09-30T10:23:23;8.38;;;2.80;;
72639;SDS011;60683;51.730;8.762;2023-09-30T10:25:52;9.95;;;2.78;;
72639;SDS011;60683;51.730;8.762;2023-09-30T10:28:32;7.88;;;2.20;;
72639;SDS011;60683;51.730;8.762;2023-09-30T10:31:10;8.40;;;2.00;;
72639;SDS011;60683;51.730;8.762;2023-09-30T10:36:43;6.25;;;2.17;;
72639;SDS011;60683;51.730;8.762;2023-09-30T10:39:12;8.95;;;2.22;;
72639;SDS011;60683;51.730;8.762;2023-09-30T10:44:34;8.10;;;1.83;;
72639;SDS011;60683;51.730;8.762;2023-09-30T10:53:07;5.38;;;2.20;;
72639;SDS011;60683;51.730;8.762;2023-09-30T10:55:35;6.55;;;1.92;;
72639;SDS011;60683;51.730;8.762;2023-09-30T10:58:03;6.30;;;1.60;;
72639;SDS011;60683;51.730;8.762;2023-09-30T11:00:30;7.07;;;2.28;;
72639;SDS011;60683;51.730;8.762;2023-09-30T11:02:58;5.70;;;1.70;;
72639;SDS011;60683;51.730;8.762;2023-09-30T11:05:25;8.18;;;2.40;;
72639;SDS011;60683;51.730;8.762;2023-09-30T11:07:54;5.20;;;1.60;;
72639;SDS011;60683;51.730;8.762;2023-09-30T11:10:24;7.13;;;1.83;;
72639;SDS011;60683;51.730;8.762;2023-09-30T11:12:54;5.07;;;1.30;;
72639;SDS011;60683;51.730;8.762;2023-09-30T11:15:22;4.88;;;1.10;;
72639;SDS011;60683;51.730;8.762;2023-09-30T11:17:49;5.68;;;1.63;;
72639;SDS011;60683;51.730;8.762;2023-09-30T11:20:18;4.63;;;1.52;;
72639;SDS011;60683;51.730;8.762;2023-09-30T11:22:46;9.02;;;1.85;;
72639;SDS011;60683;51.730;8.762;2023-09-30T11:25:17;5.05;;;2.03;;
72639;SDS011;60683;51.730;8.762;2023-09-30T11:27:44;6.97;;;1.50;;
72639;SDS011;60683;51.730;8.762;2023-09-30T11:30:12;2.92;;;1.35;;
72639;SDS011;60683;51.730;8.762;2023-09-30T11:32:40;4.90;;;1.40;;
72639;SDS011;60683;51.730;8.762;2023-09-30T11:35:22;4.18;;;1.40;;
72639;SDS011;60683;51.730;8.762;2023-09-30T11:37:50;4.15;;;1.30;;
72639;SDS011;60683;51.730;8.762;2023-09-30T11:40:17;6.65;;;1.35;;
72639;SDS011;60683;51.730;8.762;2023-09-30T11:45:34;5.80;;;1.48;;
72639;SDS011;60683;51.730;8.762;2023-09-30T11:48:01;5.18;;;1.30;;
72639;SDS011;60683;51.730;8.762;2023-09-30T11:53:16;3.95;;;1.10;;
72639;SDS011;60683;51.730;8.762;2023-09-30T11:55:44;5.82;;;1.25;;
72639;SDS011;60683;51.730;8.762;2023-09-30T11:58:11;3.40;;;1.20;;
72639;SDS011;60683;51.730;8.762;2023-09-30T12:00:43;6.40;;;1.50;;
72639;SDS011;60683;51.730;8.762;2023-09-30T12:03:11;6.72;;;1.30;;
72639;SDS011;60683;51.730;8.762;2023-09-30T12:05:39;5.43;;;1.30;;
72639;SDS011;60683;51.730;8.762;2023-09-30T12:08:07;4.57;;;1.10;;
72639;SDS011;60683;51.730;8.762;2023-09-30T12:10:34;4.55;;;1.40;;
72639;SDS011;60683;51.730;8.762;2023-09-30T12:13:01;5.53;;;1.80;;
72639;SDS011;60683;51.730;8.762;2023-09-30T12:15:28;3.47;;;1.42;;
72639;SDS011;60683;51.730;8.762;2023-09-30T12:17:55;6.80;;;1.65;;
72639;SDS011;60683;51.730;8.762;2023-09-30T12:20:22;4.47;;;1.45;;
72639;SDS011;60683;51.730;8.762;2023-09-30T12:22:49;5.28;;;1.30;;
72639;SDS011;60683;51.730;8.762;2023-09-30T12:25:18;3.92;;;1.50;;
72639;SDS011;60683;51.730;8.762;2023-09-30T12:27:47;5.32;;;1.58;;
72639;SDS011;60683;51.730;8.762;2023-09-30T12:30:14;5.38;;;1.75;;
72639;SDS011;60683;51.730;8.762;2023-09-30T12:32:42;4.47;;;1.17;;
72639;SDS011;60683;51.730;8.762;2023-09-30T12:35:09;6.43;;;1.83;;
72639;SDS011;60683;51.730;8.762;2023-09-30T12:37:36;7.88;;;1.50;;
72639;SDS011;60683;51.730;8.762;2023-09-30T12:40:04;4.30;;;1.50;;
72639;SDS011;60683;51.730;8.762;2023-09-30T12:42:33;3.78;;;2.00;;
72639;SDS011;60683;51.730;8.762;2023-09-30T12:45:00;5.30;;;1.50;;
72639;SDS011;60683;51.730;8.762;2023-09-30T12:47:27;6.22;;;1.33;;
72639;SDS011;60683;51.730;8.762;2023-09-30T12:49:54;5.50;;;1.52;;
72639;SDS011;60683;51.730;8.762;2023-09-30T12:52:21;4.78;;;1.65;;
72639;SDS011;60683;51.730;8.762;2023-09-30T12:54:49;4.63;;;1.10;;
72639;SDS011;60683;51.730;8.762;2023-09-30T12:57:16;5.72;;;1.17;;
72639;SDS011;60683;51.730;8.762;2023-09-30T12:59:45;6.18;;;1.60;;
72639;SDS011;60683;51.730;8.762;2023-09-30T13:02:14;7.07;;;1.58;;
72639;SDS011;60683;51.730;8.762;2023-09-30T13:04:43;5.90;;;1.65;;
72639;SDS011;60683;51.730;8.762;2023-09-30T13:07:11;3.88;;;1.33;;
72639;SDS011;60683;51.730;8.762;2023-09-30T13:09:38;3.53;;;1.45;;
72639;SDS011;60683;51.730;8.762;2023-09-30T13:12:06;8.70;;;1.60;;
72639;SDS011;60683;51.730;8.762;2023-09-30T13:14:33;4.18;;;1.50;;
72639;SDS011;60683;51.730;8.762;2023-09-30T13:17:02;5.57;;;1.50;;
72639;SDS011;60683;51.730;8.762;2023-09-30T13:19:30;5.47;;;1.58;;
72639;SDS011;60683;51.730;8.762;2023-09-30T13:21:58;3.47;;;1.13;;
72639;SDS011;60683;51.730;8.762;2023-09-30T13:24:25;4.72;;;1.30;;
72639;SDS011;60683;51.730;8.762;2023-09-30T13:26:53;8.30;;;1.70;;
72639;SDS011;60683;51.730;8.762;2023-09-30T13:29:20;5.22;;;1.52;;
72639;SDS011;60683;51.730;8.762;2023-09-30T13:31:47;4.65;;;1.42;;
72639;SDS011;60683;51.730;8.762;2023-09-30T13:34:15;7.05;;;1.75;;
72639;SDS011;60683;51.730;8.762;2023-09-30T13:36:42;5.03;;;1.50;;
72639;SDS011;60683;51.730;8.762;2023-09-30T13:39:08;3.95;;;1.23;;
72639;SDS011;60683;51.730;8.762;2023-09-30T13:41:38;5.00;;;1.88;;
72639;SDS011;60683;51.730;8.762;2023-09-30T13:44:05;5.18;;;1.40;;
72639;SDS011;60683;51.730;8.762;2023-09-30T13:46:33;4.03;;;1.23;;
72639;SDS011;60683;51.730;8.762;2023-09-30T13:49:00;5.55;;;1.40;;
72639;SDS011;60683;51.730;8.762;2023-09-30T13:51:28;5.68;;;1.70;;
72639;SDS011;60683;51.730;8.762;2023-09-30T13:53:55;6.18;;;1.92;;
72639;SDS011;60683;51.730;8.762;2023-09-30T13:56:22;5.50;;;1.27;;
72639;SDS011;60683;51.730;8.762;2023-09-30T13:58:49;4.95;;;1.48;;
72639;SDS011;60683;51.730;8.762;2023-09-30T14:01:16;5.68;;;1.60;;
72639;SDS011;60683;51.730;8.762;2023-09-30T14:03:45;3.47;;;1.35;;
72639;SDS011;60683;51.730;8.762;2023-09-30T14:06:13;4.95;;;1.55;;
72639;SDS011;60683;51.730;8.762;2023-09-30T14:08:41;4.15;;;1.52;;
72639;SDS011;60683;51.730;8.762;2023-09-30T14:11:09;4.53;;;1.52;;
72639;SDS011;60683;51.730;8.762;2023-09-30T14:13:36;6.50;;;1.45;;
72639;SDS011;60683;51.730;8.762;2023-09-30T14:16:04;3.95;;;1.20;;
72639;SDS011;60683;51.730;8.762;2023-09-30T14:18:32;4.93;;;1.63;;
72639;SDS011;60683;51.730;8.762;2023-09-30T14:20:59;5.10;;;1.10;;
72639;SDS011;60683;51.730;8.762;2023-09-30T14:23:26;6.53;;;1.33;;
72639;SDS011;60683;51.730;8.762;2023-09-30T14:25:55;5.50;;;1.30;;
72639;SDS011;60683;51.730;8.762;2023-09-30T14:28:22;6.25;;;1.63;;
72639;SDS011;60683;51.730;8.762;2023-09-30T14:30:49;4.60;;;1.30;;
72639;SDS011;60683;51.730;8.762;2023-09-30T14:33:16;5.28;;;1.20;;
72639;SDS011;60683;51.730;8.762;2023-09-30T14:35:44;3.78;;;1.20;;
72639;SDS011;60683;51.730;8.762;2023-09-30T14:38:11;7.32;;;1.50;;
72639;SDS011;60683;51.730;8.762;2023-09-30T14:40:39;4.53;;;1.50;;
72639;SDS011;60683;51.730;8.762;2023-09-30T14:43:07;5.35;;;1.52;;
72639;SDS011;60683;51.730;8.762;2023-09-30T14:45:38;6.22;;;1.45;;
72639;SDS011;60683;51.730;8.762;2023-09-30T14:48:05;4.82;;;1.40;;
72639;SDS011;60683;51.730;8.762;2023-09-30T14:50:32;5.95;;;1.30;;
72639;SDS011;60683;51.730;8.762;2023-09-30T14:52:59;5.53;;;1.40;;
72639;SDS011;60683;51.730;8.762;2023-09-30T14:55:27;5.25;;;1.38;;
72639;SDS011;60683;51.730;8.762;2023-09-30T14:57:55;5.60;;;1.30;;
72639;SDS011;60683;51.730;8.762;2023-09-30T15:00:23;4.82;;;1.60;;
72639;SDS011;60683;51.730;8.762;2023-09-30T15:02:52;5.35;;;1.73;;
72639;SDS011;60683;51.730;8.762;2023-09-30T15:05:20;5.22;;;1.60;;
72639;SDS011;60683;51.730;8.762;2023-09-30T15:07:47;5.93;;;1.60;;
72639;SDS011;60683;51.730;8.762;2023-09-30T15:10:14;4.90;;;1.20;;
72639;SDS011;60683;51.730;8.762;2023-09-30T15:12:41;6.93;;;2.35;;
72639;SDS011;60683;51.730;8.762;2023-09-30T15:15:08;6.55;;;1.90;;